sensor_id;sensor_type;location;lat;lon;timestamp;pressure;altitude;pressure_sealevel;temperature;humidity
50166;BME280;36071;48.140;11.516;2022-10-16T00:02:21;95570.0;;;14.8;83.6
50166;BME280;36071;48.140;11.516;2022-10-16T00:07:20;95580.0;;;14.8;84.0
50166;BME280;36071;48.140;11.516;2022-10-16T00:12:20;95570.0;;;14.7;83.9
50166;BME280;36071;48.140;11.516;2022-10-16T00:17:20;95580.0;;;14.8;84.4
50166;BME280;36071;48.140;11.516;2022-10-16T00:22:20;95560.0;;;14.7;84.1
50166;BME280;36071;48.140;11.516;2022-10-16T00:27:20;95580.0;;;14.7;83.7
50166;BME280;36071;48.140;11.516;2022-10-16T00:32:20;95580.0;;;14.6;84.6
50166;BME280;36071;48.140;11.516;2022-10-16T00:37:20;95570.0;;;14.6;84.7
50166;BME280;36071;48.140;11.516;2022-10-16T00:42:20;95580.0;;;14.5;85.2
50166;BME280;36071;48.140;11.516;2022-10-16T00:47:22;95570.0;;;14.4;86.3
50166;BME280;36071;48.140;11.516;2022-10-16T00:52:20;95590.0;;;14.5;85.8
50166;BME280;36071;48.140;11.516;2022-10-16T00:57:21;95580.0;;;14.5;84.8
50166;BME280;36071;48.140;11.516;2022-10-16T01:02:20;95590.0;;;14.5;84.3
50166;BME280;36071;48.140;11.516;2022-10-16T01:07:27;95580.0;;;14.5;85.5
50166;BME280;36071;48.140;11.516;2022-10-16T01:12:21;95590.0;;;14.5;85.0
50166;BME280;36071;48.140;11.516;2022-10-16T01:17:21;95600.0;;;14.5;85.4
50166;BME280;36071;48.140;11.516;2022-10-16T01:22:21;95600.0;;;14.4;86.0
50166;BME280;36071;48.140;11.516;2022-10-16T01:27:20;95600.0;;;14.4;85.9
50166;BME280;36071;48.140;11.516;2022-10-16T01:32:27;95610.0;;;14.4;85.6
50166;BME280;36071;48.140;11.516;2022-10-16T01:37:36;95600.0;;;14.3;85.7
50166;BME280;36071;48.140;11.516;2022-10-16T01:42:20;95600.0;;;14.3;85.2
50166;BME280;36071;48.140;11.516;2022-10-16T01:47:21;95590.0;;;14.3;85.2
50166;BME280;36071;48.140;11.516;2022-10-16T01:52:20;95590.0;;;14.2;85.5
50166;BME280;36071;48.140;11.516;2022-10-16T01:57:20;95580.0;;;14.2;85.8
50166;BME280;36071;48.140;11.516;2022-10-16T02:02:20;95580.0;;;14.1;85.8
50166;BME280;36071;48.140;11.516;2022-10-16T02:07:21;95580.0;;;14.2;85.9
50166;BME280;36071;48.140;11.516;2022-10-16T02:12:21;95580.0;;;14.1;85.7
50166;BME280;36071;48.140;11.516;2022-10-16T02:17:20;95580.0;;;14.2;85.9
50166;BME280;36071;48.140;11.516;2022-10-16T02:22:22;95580.0;;;14.2;86.2
50166;BME280;36071;48.140;11.516;2022-10-16T02:27:21;95580.0;;;14.1;85.7
50166;BME280;36071;48.140;11.516;2022-10-16T02:32:21;95580.0;;;14.1;84.9
50166;BME280;36071;48.140;11.516;2022-10-16T02:37:20;95590.0;;;14.1;85.6
50166;BME280;36071;48.140;11.516;2022-10-16T02:42:20;95600.0;;;14.1;84.2
50166;BME280;36071;48.140;11.516;2022-10-16T02:47:20;95610.0;;;14.2;84.5
50166;BME280;36071;48.140;11.516;2022-10-16T02:52:20;95600.0;;;14.2;83.6
50166;BME280;36071;48.140;11.516;2022-10-16T02:57:20;95610.0;;;14.1;83.2
50166;BME280;36071;48.140;11.516;2022-10-16T03:07:24;95600.0;;;14.1;83.2
50166;BME280;36071;48.140;11.516;2022-10-16T03:12:23;95600.0;;;14.1;83.0
50166;BME280;36071;48.140;11.516;2022-10-16T03:17:23;95600.0;;;14.1;83.7
50166;BME280;36071;48.140;11.516;2022-10-16T03:22:23;95600.0;;;14.1;83.2
50166;BME280;36071;48.140;11.516;2022-10-16T03:27:23;95600.0;;;14.0;83.2
50166;BME280;36071;48.140;11.516;2022-10-16T03:37:23;95600.0;;;14.0;83.9
50166;BME280;36071;48.140;11.516;2022-10-16T03:42:23;95610.0;;;14.0;84.2
50166;BME280;36071;48.140;11.516;2022-10-16T03:47:23;95620.0;;;13.9;83.4
50166;BME280;36071;48.140;11.516;2022-10-16T03:52:23;95620.0;;;13.9;83.5
50166;BME280;36071;48.140;11.516;2022-10-16T03:57:27;95600.0;;;13.9;83.0
50166;BME280;36071;48.140;11.516;2022-10-16T04:02:23;95610.0;;;14.0;83.6
50166;BME280;36071;48.140;11.516;2022-10-16T04:07:23;95610.0;;;14.0;83.3
50166;BME280;36071;48.140;11.516;2022-10-16T04:12:23;95600.0;;;14.0;82.4
50166;BME280;36071;48.140;11.516;2022-10-16T04:17:23;95610.0;;;14.0;82.5
50166;BME280;36071;48.140;11.516;2022-10-16T04:22:23;95610.0;;;14.0;81.7
50166;BME280;36071;48.140;11.516;2022-10-16T04:27:23;95610.0;;;14.1;82.1
50166;BME280;36071;48.140;11.516;2022-10-16T04:32:23;95610.0;;;14.1;81.9
50166;BME280;36071;48.140;11.516;2022-10-16T04:37:23;95620.0;;;14.1;82.1
50166;BME280;36071;48.140;11.516;2022-10-16T04:42:23;95620.0;;;14.1;81.9
50166;BME280;36071;48.140;11.516;2022-10-16T04:47:24;95620.0;;;14.2;81.2
50166;BME280;36071;48.140;11.516;2022-10-16T04:52:23;95610.0;;;14.2;81.1
50166;BME280;36071;48.140;11.516;2022-10-16T04:57:23;95600.0;;;14.1;81.1
50166;BME280;36071;48.140;11.516;2022-10-16T05:02:24;95610.0;;;14.1;81.5
50166;BME280;36071;48.140;11.516;2022-10-16T05:07:23;95620.0;;;14.1;81.5
50166;BME280;36071;48.140;11.516;2022-10-16T05:12:23;95610.0;;;14.1;81.9
50166;BME280;36071;48.140;11.516;2022-10-16T05:17:23;95620.0;;;14.1;81.3
50166;BME280;36071;48.140;11.516;2022-10-16T05:22:23;95610.0;;;14.1;81.9
50166;BME280;36071;48.140;11.516;2022-10-16T05:27:23;95620.0;;;14.1;81.3
50166;BME280;36071;48.140;11.516;2022-10-16T05:32:24;95620.0;;;14.1;80.6
50166;BME280;36071;48.140;11.516;2022-10-16T05:37:23;95630.0;;;14.2;81.2
50166;BME280;36071;48.140;11.516;2022-10-16T05:42:23;95630.0;;;14.2;80.7
50166;BME280;36071;48.140;11.516;2022-10-16T05:47:23;95640.0;;;14.2;80.7
50166;BME280;36071;48.140;11.516;2022-10-16T05:52:23;95650.0;;;14.2;80.0
50166;BME280;36071;48.140;11.516;2022-10-16T05:57:23;95650.0;;;14.3;79.8
50166;BME280;36071;48.140;11.516;2022-10-16T06:02:23;95650.0;;;14.3;79.9
50166;BME280;36071;48.140;11.516;2022-10-16T06:07:23;95650.0;;;14.3;79.5
50166;BME280;36071;48.140;11.516;2022-10-16T06:12:23;95660.0;;;14.3;79.4
50166;BME280;36071;48.140;11.516;2022-10-16T06:17:23;95660.0;;;14.3;78.9
50166;BME280;36071;48.140;11.516;2022-10-16T06:22:23;95660.0;;;14.4;79.2
50166;BME280;36071;48.140;11.516;2022-10-16T06:27:23;95670.0;;;14.4;78.7
50166;BME280;36071;48.140;11.516;2022-10-16T06:32:23;95680.0;;;14.4;78.2
50166;BME280;36071;48.140;11.516;2022-10-16T06:37:23;95680.0;;;14.5;77.7
50166;BME280;36071;48.140;11.516;2022-10-16T06:42:23;95690.0;;;14.5;78.6
50166;BME280;36071;48.140;11.516;2022-10-16T06:47:23;95700.0;;;14.5;77.9
50166;BME280;36071;48.140;11.516;2022-10-16T06:52:23;95710.0;;;14.5;77.9
50166;BME280;36071;48.140;11.516;2022-10-16T06:57:23;95710.0;;;14.6;77.7
50166;BME280;36071;48.140;11.516;2022-10-16T07:02:23;95720.0;;;14.6;77.3
50166;BME280;36071;48.140;11.516;2022-10-16T07:07:23;95720.0;;;14.7;76.9
50166;BME280;36071;48.140;11.516;2022-10-16T07:12:23;95720.0;;;15.0;76.6
50166;BME280;36071;48.140;11.516;2022-10-16T07:17:23;95720.0;;;15.3;73.9
50166;BME280;36071;48.140;11.516;2022-10-16T07:22:23;95720.0;;;15.5;72.4
50166;BME280;36071;48.140;11.516;2022-10-16T07:27:23;95730.0;;;15.5;73.5
50166;BME280;36071;48.140;11.516;2022-10-16T07:32:23;95740.0;;;15.6;72.8
50166;BME280;36071;48.140;11.516;2022-10-16T07:37:23;95740.0;;;15.8;72.9
50166;BME280;36071;48.140;11.516;2022-10-16T07:42:23;95740.0;;;16.1;71.1
50166;BME280;36071;48.140;11.516;2022-10-16T07:47:23;95760.0;;;16.2;70.2
50166;BME280;36071;48.140;11.516;2022-10-16T07:52:23;95760.0;;;16.8;68.2
50166;BME280;36071;48.140;11.516;2022-10-16T07:57:23;95760.0;;;16.9;67.4
50166;BME280;36071;48.140;11.516;2022-10-16T08:02:23;95760.0;;;17.7;64.9
50166;BME280;36071;48.140;11.516;2022-10-16T08:07:23;95770.0;;;18.4;62.5
50166;BME280;36071;48.140;11.516;2022-10-16T08:12:23;95780.0;;;18.9;60.5
50166;BME280;36071;48.140;11.516;2022-10-16T08:17:23;95770.0;;;19.2;59.1
50166;BME280;36071;48.140;11.516;2022-10-16T08:22:23;95780.0;;;19.6;57.3
50166;BME280;36071;48.140;11.516;2022-10-16T08:27:23;95780.0;;;19.7;56.3
50166;BME280;36071;48.140;11.516;2022-10-16T08:32:23;95790.0;;;20.2;56.0
50166;BME280;36071;48.140;11.516;2022-10-16T08:37:23;95780.0;;;20.5;54.6
50166;BME280;36071;48.140;11.516;2022-10-16T08:42:28;95780.0;;;21.2;52.8
50166;BME280;36071;48.140;11.516;2022-10-16T08:47:24;95800.0;;;21.6;51.5
50166;BME280;36071;48.140;11.516;2022-10-16T08:52:23;95800.0;;;21.8;50.0
50166;BME280;36071;48.140;11.516;2022-10-16T08:57:24;95810.0;;;22.1;48.6
50166;BME280;36071;48.140;11.516;2022-10-16T09:02:24;95810.0;;;22.4;48.1
50166;BME280;36071;48.140;11.516;2022-10-16T09:07:24;95810.0;;;22.6;46.7
50166;BME280;36071;48.140;11.516;2022-10-16T09:12:26;95810.0;;;23.1;44.9
50166;BME280;36071;48.140;11.516;2022-10-16T09:17:27;95810.0;;;23.7;44.4
50166;BME280;36071;48.140;11.516;2022-10-16T09:22:25;95810.0;;;24.3;42.8
50166;BME280;36071;48.140;11.516;2022-10-16T09:27:23;95820.0;;;24.6;41.7
50166;BME280;36071;48.140;11.516;2022-10-16T09:32:23;95810.0;;;24.8;41.0
50166;BME280;36071;48.140;11.516;2022-10-16T09:37:23;95810.0;;;25.2;40.9
50166;BME280;36071;48.140;11.516;2022-10-16T09:42:23;95810.0;;;25.3;40.9
50166;BME280;36071;48.140;11.516;2022-10-16T09:47:23;95820.0;;;26.0;39.3
50166;BME280;36071;48.140;11.516;2022-10-16T09:52:23;95810.0;;;26.2;38.1
50166;BME280;36071;48.140;11.516;2022-10-16T09:57:23;95820.0;;;26.0;37.4
50166;BME280;36071;48.140;11.516;2022-10-16T10:02:29;95830.0;;;26.4;35.5
50166;BME280;36071;48.140;11.516;2022-10-16T10:07:24;95830.0;;;26.7;35.7
50166;BME280;36071;48.140;11.516;2022-10-16T10:12:23;95820.0;;;27.2;34.4
50166;BME280;36071;48.140;11.516;2022-10-16T10:17:23;95830.0;;;27.7;33.4
50166;BME280;36071;48.140;11.516;2022-10-16T10:22:24;95820.0;;;28.0;33.1
50166;BME280;36071;48.140;11.516;2022-10-16T10:27:24;95830.0;;;28.6;32.0
50166;BME280;36071;48.140;11.516;2022-10-16T10:32:24;95830.0;;;29.5;31.0
50166;BME280;36071;48.140;11.516;2022-10-16T10:37:27;95830.0;;;29.8;29.8
50166;BME280;36071;48.140;11.516;2022-10-16T10:42:24;95810.0;;;30.1;29.3
50166;BME280;36071;48.140;11.516;2022-10-16T10:47:26;95820.0;;;30.9;28.6
50166;BME280;36071;48.140;11.516;2022-10-16T10:52:29;95820.0;;;31.5;28.5
50166;BME280;36071;48.140;11.516;2022-10-16T10:57:25;95820.0;;;31.5;27.8
50166;BME280;36071;48.140;11.516;2022-10-16T11:02:24;95820.0;;;32.1;27.6
50166;BME280;36071;48.140;11.516;2022-10-16T11:07:24;95810.0;;;32.0;28.0
50166;BME280;36071;48.140;11.516;2022-10-16T11:12:24;95810.0;;;32.2;26.8
50166;BME280;36071;48.140;11.516;2022-10-16T11:17:25;95810.0;;;31.5;28.0
50166;BME280;36071;48.140;11.516;2022-10-16T11:22:24;95810.0;;;31.4;26.7
50166;BME280;36071;48.140;11.516;2022-10-16T11:27:25;95820.0;;;31.4;26.0
50166;BME280;36071;48.140;11.516;2022-10-16T11:32:24;95810.0;;;31.3;26.8
50166;BME280;36071;48.140;11.516;2022-10-16T11:37:23;95800.0;;;31.0;26.0
50166;BME280;36071;48.140;11.516;2022-10-16T11:42:25;95810.0;;;30.8;26.1
50166;BME280;36071;48.140;11.516;2022-10-16T11:47:25;95810.0;;;31.0;26.8
50166;BME280;36071;48.140;11.516;2022-10-16T11:52:25;95810.0;;;30.8;27.0
50166;BME280;36071;48.140;11.516;2022-10-16T11:57:23;95810.0;;;30.5;27.3
50166;BME280;36071;48.140;11.516;2022-10-16T12:02:27;95820.0;;;30.6;27.3
50166;BME280;36071;48.140;11.516;2022-10-16T12:07:24;95810.0;;;30.6;26.5
50166;BME280;36071;48.140;11.516;2022-10-16T12:12:23;95800.0;;;30.8;26.9
50166;BME280;36071;48.140;11.516;2022-10-16T12:17:24;95810.0;;;30.4;27.5
50166;BME280;36071;48.140;11.516;2022-10-16T12:22:23;95810.0;;;30.7;27.2
50166;BME280;36071;48.140;11.516;2022-10-16T12:27:24;95800.0;;;30.7;27.3
50166;BME280;36071;48.140;11.516;2022-10-16T12:32:26;95800.0;;;30.7;27.1
50166;BME280;36071;48.140;11.516;2022-10-16T12:37:23;95800.0;;;30.1;27.8
50166;BME280;36071;48.140;11.516;2022-10-16T12:42:30;95800.0;;;30.7;28.1
50166;BME280;36071;48.140;11.516;2022-10-16T12:47:24;95800.0;;;30.8;27.5
50166;BME280;36071;48.140;11.516;2022-10-16T12:52:27;95800.0;;;30.6;28.6
50166;BME280;36071;48.140;11.516;2022-10-16T12:57:27;95790.0;;;31.1;27.5
50166;BME280;36071;48.140;11.516;2022-10-16T13:02:34;95790.0;;;31.1;27.3
50166;BME280;36071;48.140;11.516;2022-10-16T13:07:28;95790.0;;;31.2;25.3
50166;BME280;36071;48.140;11.516;2022-10-16T13:12:28;95790.0;;;31.0;26.7
50166;BME280;36071;48.140;11.516;2022-10-16T13:17:24;95790.0;;;30.5;26.8
50166;BME280;36071;48.140;11.516;2022-10-16T13:22:24;95800.0;;;30.6;29.0
50166;BME280;36071;48.140;11.516;2022-10-16T13:27:25;95800.0;;;30.6;28.4
50166;BME280;36071;48.140;11.516;2022-10-16T13:32:23;95800.0;;;30.3;28.8
50166;BME280;36071;48.140;11.516;2022-10-16T13:37:23;95810.0;;;30.5;29.8
50166;BME280;36071;48.140;11.516;2022-10-16T13:42:24;95800.0;;;30.3;27.0
50166;BME280;36071;48.140;11.516;2022-10-16T13:47:24;95810.0;;;30.3;27.9
50166;BME280;36071;48.140;11.516;2022-10-16T13:52:23;95810.0;;;30.2;26.5
50166;BME280;36071;48.140;11.516;2022-10-16T13:57:24;95810.0;;;30.0;26.9
50166;BME280;36071;48.140;11.516;2022-10-16T14:02:25;95820.0;;;30.2;27.4
50166;BME280;36071;48.140;11.516;2022-10-16T14:07:24;95820.0;;;29.9;28.0
50166;BME280;36071;48.140;11.516;2022-10-16T14:12:23;95820.0;;;29.9;27.7
50166;BME280;36071;48.140;11.516;2022-10-16T14:17:24;95820.0;;;30.0;28.0
50166;BME280;36071;48.140;11.516;2022-10-16T14:22:26;95820.0;;;30.1;28.8
50166;BME280;36071;48.140;11.516;2022-10-16T14:27:25;95820.0;;;30.0;27.9
50166;BME280;36071;48.140;11.516;2022-10-16T14:32:26;95810.0;;;29.9;28.4
50166;BME280;36071;48.140;11.516;2022-10-16T14:37:24;95820.0;;;29.9;28.6
50166;BME280;36071;48.140;11.516;2022-10-16T14:42:24;95820.0;;;29.8;28.1
50166;BME280;36071;48.140;11.516;2022-10-16T14:47:24;95820.0;;;29.5;28.6
50166;BME280;36071;48.140;11.516;2022-10-16T14:52:23;95820.0;;;29.5;29.8
50166;BME280;36071;48.140;11.516;2022-10-16T14:57:24;95830.0;;;29.0;31.3
50166;BME280;36071;48.140;11.516;2022-10-16T15:02:25;95820.0;;;28.8;31.7
50166;BME280;36071;48.140;11.516;2022-10-16T15:07:23;95830.0;;;28.6;32.2
50166;BME280;36071;48.140;11.516;2022-10-16T15:12:23;95840.0;;;28.4;32.1
50166;BME280;36071;48.140;11.516;2022-10-16T15:17:23;95840.0;;;28.2;33.2
50166;BME280;36071;48.140;11.516;2022-10-16T15:22:23;95840.0;;;28.0;34.4
50166;BME280;36071;48.140;11.516;2022-10-16T15:27:23;95840.0;;;27.7;33.5
50166;BME280;36071;48.140;11.516;2022-10-16T15:32:23;95850.0;;;27.5;33.6
50166;BME280;36071;48.140;11.516;2022-10-16T15:37:23;95850.0;;;27.1;34.4
50166;BME280;36071;48.140;11.516;2022-10-16T15:42:23;95850.0;;;26.8;34.8
50166;BME280;36071;48.140;11.516;2022-10-16T15:47:25;95850.0;;;26.5;36.1
50166;BME280;36071;48.140;11.516;2022-10-16T15:52:23;95850.0;;;26.6;37.0
50166;BME280;36071;48.140;11.516;2022-10-16T15:57:23;95860.0;;;26.5;37.1
50166;BME280;36071;48.140;11.516;2022-10-16T16:02:23;95860.0;;;26.0;37.8
50166;BME280;36071;48.140;11.516;2022-10-16T16:07:27;95860.0;;;26.1;37.9
50166;BME280;36071;48.140;11.516;2022-10-16T16:12:23;95860.0;;;25.9;38.7
50166;BME280;36071;48.140;11.516;2022-10-16T16:17:23;95870.0;;;25.9;38.4
50166;BME280;36071;48.140;11.516;2022-10-16T16:22:23;95870.0;;;25.7;38.9
50166;BME280;36071;48.140;11.516;2022-10-16T16:27:23;95870.0;;;25.7;39.2
50166;BME280;36071;48.140;11.516;2022-10-16T16:32:28;95880.0;;;25.5;39.1
50166;BME280;36071;48.140;11.516;2022-10-16T16:37:28;95880.0;;;25.5;39.5
50166;BME280;36071;48.140;11.516;2022-10-16T16:42:23;95890.0;;;25.4;39.8
50166;BME280;36071;48.140;11.516;2022-10-16T16:47:23;95900.0;;;25.1;40.1
50166;BME280;36071;48.140;11.516;2022-10-16T16:52:23;95900.0;;;24.9;40.9
50166;BME280;36071;48.140;11.516;2022-10-16T16:57:23;95910.0;;;24.8;41.1
50166;BME280;36071;48.140;11.516;2022-10-16T17:02:23;95910.0;;;24.7;41.1
50166;BME280;36071;48.140;11.516;2022-10-16T17:07:23;95920.0;;;24.6;41.1
50166;BME280;36071;48.140;11.516;2022-10-16T17:12:23;95930.0;;;24.4;41.7
50166;BME280;36071;48.140;11.516;2022-10-16T17:17:23;95930.0;;;24.3;42.1
50166;BME280;36071;48.140;11.516;2022-10-16T17:22:24;95930.0;;;24.2;42.0
50166;BME280;36071;48.140;11.516;2022-10-16T17:27:23;95940.0;;;24.2;42.2
50166;BME280;36071;48.140;11.516;2022-10-16T17:32:23;95940.0;;;24.0;42.4
50166;BME280;36071;48.140;11.516;2022-10-16T17:37:23;95950.0;;;23.9;42.9
50166;BME280;36071;48.140;11.516;2022-10-16T17:42:23;95970.0;;;23.8;43.6
50166;BME280;36071;48.140;11.516;2022-10-16T17:47:23;95960.0;;;23.7;43.7
50166;BME280;36071;48.140;11.516;2022-10-16T17:52:23;95970.0;;;23.6;43.9
50166;BME280;36071;48.140;11.516;2022-10-16T17:57:23;95970.0;;;23.5;44.1
50166;BME280;36071;48.140;11.516;2022-10-16T18:02:23;95980.0;;;23.4;44.3
50166;BME280;36071;48.140;11.516;2022-10-16T18:07:23;95980.0;;;23.3;45.3
50166;BME280;36071;48.140;11.516;2022-10-16T18:12:23;95990.0;;;23.1;45.9
50166;BME280;36071;48.140;11.516;2022-10-16T18:17:23;96000.0;;;22.9;46.2
50166;BME280;36071;48.140;11.516;2022-10-16T18:22:23;96000.0;;;22.8;46.1
50166;BME280;36071;48.140;11.516;2022-10-16T18:27:23;96000.0;;;22.7;46.9
50166;BME280;36071;48.140;11.516;2022-10-16T18:32:23;96000.0;;;22.5;47.4
50166;BME280;36071;48.140;11.516;2022-10-16T18:37:23;96000.0;;;22.4;48.1
50166;BME280;36071;48.140;11.516;2022-10-16T18:42:23;96010.0;;;22.3;48.3
50166;BME280;36071;48.140;11.516;2022-10-16T18:47:23;96000.0;;;22.2;48.5
50166;BME280;36071;48.140;11.516;2022-10-16T18:52:23;96010.0;;;22.1;49.3
50166;BME280;36071;48.140;11.516;2022-10-16T18:57:23;96010.0;;;22.0;49.5
50166;BME280;36071;48.140;11.516;2022-10-16T19:02:23;96020.0;;;22.0;50.0
50166;BME280;36071;48.140;11.516;2022-10-16T19:07:23;96020.0;;;21.8;49.9
50166;BME280;36071;48.140;11.516;2022-10-16T19:12:23;96020.0;;;21.8;50.1
50166;BME280;36071;48.140;11.516;2022-10-16T19:17:23;96030.0;;;21.7;50.6
50166;BME280;36071;48.140;11.516;2022-10-16T19:22:23;96030.0;;;21.5;51.2
50166;BME280;36071;48.140;11.516;2022-10-16T19:27:23;96040.0;;;21.4;51.6
50166;BME280;36071;48.140;11.516;2022-10-16T19:32:23;96040.0;;;21.3;51.6
50166;BME280;36071;48.140;11.516;2022-10-16T19:37:23;96060.0;;;21.2;52.0
50166;BME280;36071;48.140;11.516;2022-10-16T19:42:23;96050.0;;;21.0;52.5
50166;BME280;36071;48.140;11.516;2022-10-16T19:47:23;96050.0;;;20.9;53.0
50166;BME280;36071;48.140;11.516;2022-10-16T19:52:23;96060.0;;;20.8;53.4
50166;BME280;36071;48.140;11.516;2022-10-16T19:57:23;96070.0;;;20.6;54.0
50166;BME280;36071;48.140;11.516;2022-10-16T20:02:23;96070.0;;;20.6;54.3
50166;BME280;36071;48.140;11.516;2022-10-16T20:07:23;96060.0;;;20.4;54.9
50166;BME280;36071;48.140;11.516;2022-10-16T20:12:23;96070.0;;;20.3;55.0
50166;BME280;36071;48.140;11.516;2022-10-16T20:17:23;96070.0;;;20.3;55.4
50166;BME280;36071;48.140;11.516;2022-10-16T20:22:23;96080.0;;;20.2;55.3
50166;BME280;36071;48.140;11.516;2022-10-16T20:27:23;96080.0;;;20.1;55.7
50166;BME280;36071;48.140;11.516;2022-10-16T20:32:23;96090.0;;;20.1;56.0
50166;BME280;36071;48.140;11.516;2022-10-16T20:37:23;96100.0;;;19.9;56.4
50166;BME280;36071;48.140;11.516;2022-10-16T20:42:23;96100.0;;;19.9;56.5
50166;BME280;36071;48.140;11.516;2022-10-16T20:47:23;96090.0;;;19.7;57.0
50166;BME280;36071;48.140;11.516;2022-10-16T20:52:23;96090.0;;;19.6;57.2
50166;BME280;36071;48.140;11.516;2022-10-16T20:57:23;96100.0;;;19.5;57.6
50166;BME280;36071;48.140;11.516;2022-10-16T21:07:23;96110.0;;;19.4;57.7
50166;BME280;36071;48.140;11.516;2022-10-16T21:12:23;96100.0;;;19.3;58.0
50166;BME280;36071;48.140;11.516;2022-10-16T21:17:23;96100.0;;;19.2;58.4
50166;BME280;36071;48.140;11.516;2022-10-16T21:22:27;96110.0;;;19.3;58.1
50166;BME280;36071;48.140;11.516;2022-10-16T21:27:23;96120.0;;;19.2;58.3
50166;BME280;36071;48.140;11.516;2022-10-16T21:32:23;96120.0;;;19.2;58.6
50166;BME280;36071;48.140;11.516;2022-10-16T21:37:23;96120.0;;;19.1;58.9
50166;BME280;36071;48.140;11.516;2022-10-16T21:42:23;96110.0;;;19.0;59.2
50166;BME280;36071;48.140;11.516;2022-10-16T21:47:23;96110.0;;;18.9;59.3
50166;BME280;36071;48.140;11.516;2022-10-16T21:52:23;96110.0;;;18.8;59.8
50166;BME280;36071;48.140;11.516;2022-10-16T21:57:23;96110.0;;;18.6;60.0
50166;BME280;36071;48.140;11.516;2022-10-16T22:02:23;96110.0;;;18.5;60.6
50166;BME280;36071;48.140;11.516;2022-10-16T22:07:23;96120.0;;;18.5;61.0
50166;BME280;36071;48.140;11.516;2022-10-16T22:12:23;96110.0;;;18.3;61.1
50166;BME280;36071;48.140;11.516;2022-10-16T22:17:23;96110.0;;;18.2;61.5
50166;BME280;36071;48.140;11.516;2022-10-16T22:22:23;96110.0;;;18.2;61.4
50166;BME280;36071;48.140;11.516;2022-10-16T22:27:23;96110.0;;;18.1;61.7
50166;BME280;36071;48.140;11.516;2022-10-16T22:32:23;96110.0;;;18.1;61.6
50166;BME280;36071;48.140;11.516;2022-10-16T22:42:23;96120.0;;;18.0;61.6
50166;BME280;36071;48.140;11.516;2022-10-16T22:47:24;96110.0;;;18.0;61.5
50166;BME280;36071;48.140;11.516;2022-10-16T22:52:23;96120.0;;;18.0;61.7
50166;BME280;36071;48.140;11.516;2022-10-16T22:57:23;96120.0;;;18.0;61.6
50166;BME280;36071;48.140;11.516;2022-10-16T23:02:23;96130.0;;;17.9;62.3
50166;BME280;36071;48.140;11.516;2022-10-16T23:07:23;96120.0;;;17.8;62.4
50166;BME280;36071;48.140;11.516;2022-10-16T23:12:23;96120.0;;;17.7;62.4
50166;BME280;36071;48.140;11.516;2022-10-16T23:17:23;96120.0;;;17.6;63.0
50166;BME280;36071;48.140;11.516;2022-10-16T23:22:23;96130.0;;;17.5;63.4
50166;BME280;36071;48.140;11.516;2022-10-16T23:27:24;96130.0;;;17.4;63.5
50166;BME280;36071;48.140;11.516;2022-10-16T23:32:23;96120.0;;;17.4;63.6
50166;BME280;36071;48.140;11.516;2022-10-16T23:37:23;96130.0;;;17.4;63.5
50166;BME280;36071;48.140;11.516;2022-10-16T23:42:23;96130.0;;;17.3;63.8
50166;BME280;36071;48.140;11.516;2022-10-16T23:47:23;96140.0;;;17.2;64.2
50166;BME280;36071;48.140;11.516;2022-10-16T23:52:23;96140.0;;;17.1;63.9
50166;BME280;36071;48.140;11.516;2022-10-16T23:57:24;96130.0;;;17.0;62.9
